sensor_id;sensor_type;location;lat;lon;timestamp;pressure;altitude;pressure_sealevel;temperature;humidity
8292;BME280;4184;42.724;23.308;2022-07-04T00:01:58;95625.97;;;24.21;52.30
8292;BME280;4184;42.724;23.308;2022-07-04T00:04:26;95616.66;;;24.12;52.29
8292;BME280;4184;42.724;23.308;2022-07-04T00:06:54;95621.59;;;24.02;52.28
8292;BME280;4184;42.724;23.308;2022-07-04T00:09:22;95622.84;;;23.93;52.47
8292;BME280;4184;42.724;23.308;2022-07-04T00:11:50;95619.63;;;23.91;52.31
8292;BME280;4184;42.724;23.308;2022-07-04T00:14:17;95622.84;;;23.93;52.04
8292;BME280;4184;42.724;23.308;2022-07-04T00:16:45;95625.88;;;23.96;52.26
8292;BME280;4184;42.724;23.308;2022-07-04T00:19:13;95624.84;;;23.97;51.80
8292;BME280;4184;42.724;23.308;2022-07-04T00:21:40;95622.84;;;23.93;52.07
8292;BME280;4184;42.724;23.308;2022-07-04T00:24:08;95621.66;;;23.89;52.01
8292;BME280;4184;42.724;23.308;2022-07-04T00:26:37;95626.75;;;23.84;51.73
8292;BME280;4184;42.724;23.308;2022-07-04T00:29:04;95623.56;;;23.75;52.02
8292;BME280;4184;42.724;23.308;2022-07-04T00:31:32;95620.13;;;23.68;52.12
8292;BME280;4184;42.724;23.308;2022-07-04T00:34:00;95614.88;;;23.61;51.83
8292;BME280;4184;42.724;23.308;2022-07-04T00:36:27;95608.41;;;23.57;51.93
8292;BME280;4184;42.724;23.308;2022-07-04T00:38:55;95609.00;;;23.53;52.07
8292;BME280;4184;42.724;23.308;2022-07-04T00:41:22;95602.72;;;23.47;51.72
8292;BME280;4184;42.724;23.308;2022-07-04T00:44:02;95608.03;;;23.40;52.32
8292;BME280;4184;42.724;23.308;2022-07-04T00:46:30;95612.31;;;23.35;52.45
8292;BME280;4184;42.724;23.308;2022-07-04T00:48:58;95608.03;;;23.34;52.25
8292;BME280;4184;42.724;23.308;2022-07-04T00:51:26;95607.66;;;23.30;52.09
8292;BME280;4184;42.724;23.308;2022-07-04T00:53:54;95607.84;;;23.29;52.27
8292;BME280;4184;42.724;23.308;2022-07-04T00:56:23;95604.81;;;23.25;52.08
8292;BME280;4184;42.724;23.308;2022-07-04T00:58:51;95608.91;;;23.21;52.23
8292;BME280;4184;42.724;23.308;2022-07-04T01:01:20;95603.63;;;23.15;52.20
8292;BME280;4184;42.724;23.308;2022-07-04T01:03:48;95603.22;;;23.11;51.94
8292;BME280;4184;42.724;23.308;2022-07-04T01:06:18;95606.06;;;23.09;52.05
8292;BME280;4184;42.724;23.308;2022-07-04T01:08:46;95601.22;;;23.06;51.99
8292;BME280;4184;42.724;23.308;2022-07-04T01:11:14;95609.31;;;23.11;51.84
8292;BME280;4184;42.724;23.308;2022-07-04T01:13:42;95607.69;;;23.10;51.99
8292;BME280;4184;42.724;23.308;2022-07-04T01:16:10;95611.53;;;23.15;51.61
8292;BME280;4184;42.724;23.308;2022-07-04T01:18:40;95610.94;;;23.19;51.57
8292;BME280;4184;42.724;23.308;2022-07-04T01:21:09;95610.09;;;23.25;51.29
8292;BME280;4184;42.724;23.308;2022-07-04T01:23:38;95604.00;;;23.25;51.44
8292;BME280;4184;42.724;23.308;2022-07-04T01:26:05;95600.38;;;23.19;51.34
8292;BME280;4184;42.724;23.308;2022-07-04T01:28:33;95603.19;;;23.18;51.11
8292;BME280;4184;42.724;23.308;2022-07-04T01:31:01;95606.69;;;23.18;51.09
8292;BME280;4184;42.724;23.308;2022-07-04T01:33:28;95604.84;;;23.19;51.08
8292;BME280;4184;42.724;23.308;2022-07-04T01:35:56;95601.41;;;23.18;50.94
8292;BME280;4184;42.724;23.308;2022-07-04T01:38:25;95602.41;;;23.17;51.25
8292;BME280;4184;42.724;23.308;2022-07-04T01:40:53;95605.66;;;23.13;51.22
8292;BME280;4184;42.724;23.308;2022-07-04T01:43:20;95614.59;;;23.11;50.98
8292;BME280;4184;42.724;23.308;2022-07-04T01:45:48;95616.22;;;23.13;50.83
8292;BME280;4184;42.724;23.308;2022-07-04T01:48:15;95609.31;;;23.11;50.93
8292;BME280;4184;42.724;23.308;2022-07-04T01:50:43;95611.16;;;23.11;50.80
8292;BME280;4184;42.724;23.308;2022-07-04T01:53:10;95602.84;;;23.07;51.03
8292;BME280;4184;42.724;23.308;2022-07-04T01:55:39;95604.88;;;23.05;50.74
8292;BME280;4184;42.724;23.308;2022-07-04T01:58:07;95607.72;;;23.04;50.69
8292;BME280;4184;42.724;23.308;2022-07-04T02:00:34;95603.25;;;23.04;50.66
8292;BME280;4184;42.724;23.308;2022-07-04T02:03:19;95610.97;;;23.06;50.54
8292;BME280;4184;42.724;23.308;2022-07-04T02:05:47;95598.41;;;23.01;50.54
8292;BME280;4184;42.724;23.308;2022-07-04T02:08:14;95607.31;;;23.00;50.25
8292;BME280;4184;42.724;23.308;2022-07-04T02:10:43;95608.94;;;22.95;50.74
8292;BME280;4184;42.724;23.308;2022-07-04T02:13:11;95610.78;;;22.94;50.49
8292;BME280;4184;42.724;23.308;2022-07-04T02:15:39;95610.16;;;22.92;50.59
8292;BME280;4184;42.724;23.308;2022-07-04T02:18:09;95614.63;;;22.92;50.28
8292;BME280;4184;42.724;23.308;2022-07-04T02:20:37;95617.06;;;22.93;50.43
8292;BME280;4184;42.724;23.308;2022-07-04T02:23:05;95616.66;;;22.96;50.12
8292;BME280;4184;42.724;23.308;2022-07-04T02:25:33;95615.41;;;22.99;50.04
8292;BME280;4184;42.724;23.308;2022-07-04T02:28:02;95620.47;;;23.00;50.07
8292;BME280;4184;42.724;23.308;2022-07-04T02:30:30;95622.53;;;22.98;49.80
8292;BME280;4184;42.724;23.308;2022-07-04T02:32:57;95617.44;;;22.97;50.23
8292;BME280;4184;42.724;23.308;2022-07-04T02:35:25;95616.66;;;22.96;49.95
8292;BME280;4184;42.724;23.308;2022-07-04T02:37:52;95609.13;;;23.00;49.44
8292;BME280;4184;42.724;23.308;2022-07-04T02:40:20;95604.66;;;23.00;49.41
8292;BME280;4184;42.724;23.308;2022-07-04T02:42:47;95608.31;;;22.99;49.77
8292;BME280;4184;42.724;23.308;2022-07-04T02:45:16;95614.00;;;22.96;49.72
8292;BME280;4184;42.724;23.308;2022-07-04T02:47:44;95616.66;;;22.96;49.53
8292;BME280;4184;42.724;23.308;2022-07-04T02:50:12;95628.81;;;22.97;49.41
8292;BME280;4184;42.724;23.308;2022-07-04T02:52:42;95624.75;;;22.95;49.51
8292;BME280;4184;42.724;23.308;2022-07-04T02:55:09;95632.66;;;22.95;49.41
8292;BME280;4184;42.724;23.308;2022-07-04T02:57:36;95628.22;;;22.95;49.40
8292;BME280;4184;42.724;23.308;2022-07-04T03:00:05;95637.75;;;22.96;49.28
8292;BME280;4184;42.724;23.308;2022-07-04T03:02:34;95635.91;;;22.97;49.24
8292;BME280;4184;42.724;23.308;2022-07-04T03:05:02;95636.31;;;23.00;49.45
8292;BME280;4184;42.724;23.308;2022-07-04T03:07:29;95637.75;;;23.03;48.85
8292;BME280;4184;42.724;23.308;2022-07-04T03:09:57;95641.19;;;23.03;48.91
8292;BME280;4184;42.724;23.308;2022-07-04T03:12:24;95639.38;;;23.04;49.25
8292;BME280;4184;42.724;23.308;2022-07-04T03:14:52;95641.41;;;23.02;49.26
8292;BME280;4184;42.724;23.308;2022-07-04T03:17:20;95648.50;;;23.01;49.13
8292;BME280;4184;42.724;23.308;2022-07-04T03:19:49;95643.63;;;22.98;49.37
8292;BME280;4184;42.724;23.308;2022-07-04T03:22:16;95651.53;;;22.98;49.12
8292;BME280;4184;42.724;23.308;2022-07-04T03:24:44;95644.63;;;22.97;48.94
8292;BME280;4184;42.724;23.308;2022-07-04T03:27:11;95649.91;;;22.97;48.86
8292;BME280;4184;42.724;23.308;2022-07-04T03:29:39;95646.25;;;22.98;48.90
8292;BME280;4184;42.724;23.308;2022-07-04T03:32:07;95649.09;;;23.03;48.45
8292;BME280;4184;42.724;23.308;2022-07-04T03:34:35;95645.63;;;23.09;48.82
8292;BME280;4184;42.724;23.308;2022-07-04T03:37:04;95650.72;;;23.11;48.46
8292;BME280;4184;42.724;23.308;2022-07-04T03:39:31;95647.84;;;23.13;48.23
8292;BME280;4184;42.724;23.308;2022-07-04T03:41:59;95648.25;;;23.16;48.40
8292;BME280;4184;42.724;23.308;2022-07-04T03:44:26;95642.59;;;23.19;48.18
8292;BME280;4184;42.724;23.308;2022-07-04T03:46:54;95650.50;;;23.19;47.95
8292;BME280;4184;42.724;23.308;2022-07-04T03:49:22;95646.63;;;23.22;47.86
8292;BME280;4184;42.724;23.308;2022-07-04T03:51:49;95645.81;;;23.28;47.72
8292;BME280;4184;42.724;23.308;2022-07-04T03:54:18;95644.97;;;23.34;47.44
8292;BME280;4184;42.724;23.308;2022-07-04T03:56:46;95644.16;;;23.40;47.26
8292;BME280;4184;42.724;23.308;2022-07-04T03:59:13;95644.34;;;23.45;47.18
8292;BME280;4184;42.724;23.308;2022-07-04T04:01:41;95637.22;;;23.52;47.34
8292;BME280;4184;42.724;23.308;2022-07-04T04:04:09;95649.19;;;23.61;46.76
8292;BME280;4184;42.724;23.308;2022-07-04T04:07:03;95645.38;;;23.95;46.47
8292;BME280;4184;42.724;23.308;2022-07-04T04:09:31;95645.84;;;24.30;46.38
8292;BME280;4184;42.724;23.308;2022-07-04T04:11:59;95637.91;;;24.62;46.15
8292;BME280;4184;42.724;23.308;2022-07-04T04:14:27;95647.47;;;24.88;45.56
8292;BME280;4184;42.724;23.308;2022-07-04T04:16:55;95651.72;;;25.14;45.47
8292;BME280;4184;42.724;23.308;2022-07-04T04:19:23;95648.22;;;25.38;45.26
8292;BME280;4184;42.724;23.308;2022-07-04T04:21:51;95655.06;;;25.64;44.93
8292;BME280;4184;42.724;23.308;2022-07-04T04:24:18;95651.34;;;25.90;45.14
8292;BME280;4184;42.724;23.308;2022-07-04T04:26:47;95647.16;;;26.13;44.74
8292;BME280;4184;42.724;23.308;2022-07-04T04:29:15;95642.50;;;26.26;44.59
8292;BME280;4184;42.724;23.308;2022-07-04T04:31:42;95648.78;;;26.44;44.58
8292;BME280;4184;42.724;23.308;2022-07-04T04:34:10;95654.63;;;26.76;44.02
8292;BME280;4184;42.724;23.308;2022-07-04T04:36:37;95653.03;;;26.98;43.44
8292;BME280;4184;42.724;23.308;2022-07-04T04:39:05;95663.72;;;27.21;43.37
8292;BME280;4184;42.724;23.308;2022-07-04T04:41:32;95651.44;;;27.44;43.00
8292;BME280;4184;42.724;23.308;2022-07-04T04:44:01;95654.31;;;27.66;42.48
8292;BME280;4184;42.724;23.308;2022-07-04T04:46:29;95653.47;;;27.89;41.98
8292;BME280;4184;42.724;23.308;2022-07-04T04:48:56;95658.22;;;28.15;41.88
8292;BME280;4184;42.724;23.308;2022-07-04T04:51:24;95650.09;;;28.33;41.58
8292;BME280;4184;42.724;23.308;2022-07-04T04:53:51;95655.28;;;28.57;40.78
8292;BME280;4184;42.724;23.308;2022-07-04T04:56:19;95654.19;;;28.86;40.22
8292;BME280;4184;42.724;23.308;2022-07-04T04:58:47;95645.81;;;29.11;39.95
8292;BME280;4184;42.724;23.308;2022-07-04T05:01:16;95651.75;;;29.35;39.80
8292;BME280;4184;42.724;23.308;2022-07-04T05:03:44;95652.63;;;29.57;39.57
8292;BME280;4184;42.724;23.308;2022-07-04T05:06:11;95647.19;;;29.91;38.56
8292;BME280;4184;42.724;23.308;2022-07-04T05:08:39;95655.53;;;30.21;37.96
8292;BME280;4184;42.724;23.308;2022-07-04T05:11:06;95647.28;;;30.50;37.75
8292;BME280;4184;42.724;23.308;2022-07-04T05:13:34;95644.38;;;30.78;37.17
8292;BME280;4184;42.724;23.308;2022-07-04T05:16:02;95645.63;;;31.03;36.99
8292;BME280;4184;42.724;23.308;2022-07-04T05:18:31;95642.56;;;31.21;36.35
8292;BME280;4184;42.724;23.308;2022-07-04T05:20:59;95640.75;;;31.32;36.32
8292;BME280;4184;42.724;23.308;2022-07-04T05:23:26;95640.56;;;31.43;36.01
8292;BME280;4184;42.724;23.308;2022-07-04T05:25:54;95638.41;;;31.40;36.10
8292;BME280;4184;42.724;23.308;2022-07-04T05:28:21;95642.94;;;31.40;36.25
8292;BME280;4184;42.724;23.308;2022-07-04T05:30:49;95641.66;;;31.48;35.84
8292;BME280;4184;42.724;23.308;2022-07-04T05:33:16;95650.31;;;31.65;35.53
8292;BME280;4184;42.724;23.308;2022-07-04T05:35:46;95653.09;;;31.90;35.32
8292;BME280;4184;42.724;23.308;2022-07-04T05:38:13;95653.75;;;32.13;34.91
8292;BME280;4184;42.724;23.308;2022-07-04T05:40:43;95653.00;;;32.33;34.64
8292;BME280;4184;42.724;23.308;2022-07-04T05:43:10;95651.47;;;32.62;33.81
8292;BME280;4184;42.724;23.308;2022-07-04T05:45:39;95649.09;;;32.86;33.58
8292;BME280;4184;42.724;23.308;2022-07-04T05:48:07;95645.31;;;33.12;32.97
8292;BME280;4184;42.724;23.308;2022-07-04T05:50:34;95633.25;;;33.35;32.94
8292;BME280;4184;42.724;23.308;2022-07-04T05:53:03;95636.69;;;33.51;32.49
8292;BME280;4184;42.724;23.308;2022-07-04T05:55:31;95634.22;;;33.70;32.66
8292;BME280;4184;42.724;23.308;2022-07-04T05:57:59;95641.69;;;33.88;31.81
8292;BME280;4184;42.724;23.308;2022-07-04T06:00:27;95638.13;;;34.03;31.89
8292;BME280;4184;42.724;23.308;2022-07-04T06:02:55;95636.97;;;34.19;31.56
8292;BME280;4184;42.724;23.308;2022-07-04T06:05:22;95642.81;;;34.31;31.52
8292;BME280;4184;42.724;23.308;2022-07-04T06:07:50;95642.75;;;34.47;30.87
8292;BME280;4184;42.724;23.308;2022-07-04T06:10:19;95642.94;;;34.60;30.80
8292;BME280;4184;42.724;23.308;2022-07-04T06:12:47;95647.13;;;34.72;30.82
8292;BME280;4184;42.724;23.308;2022-07-04T06:15:14;95635.81;;;34.80;31.11
8292;BME280;4184;42.724;23.308;2022-07-04T06:17:42;95642.44;;;34.92;30.71
8292;BME280;4184;42.724;23.308;2022-07-04T06:20:10;95639.38;;;35.04;30.20
8292;BME280;4184;42.724;23.308;2022-07-04T06:22:42;95638.63;;;34.98;30.40
8292;BME280;4184;42.724;23.308;2022-07-04T06:25:11;95634.84;;;35.00;30.35
8292;BME280;4184;42.724;23.308;2022-07-04T06:27:40;95629.94;;;35.07;30.27
8292;BME280;4184;42.724;23.308;2022-07-04T06:30:09;95633.13;;;35.14;29.91
8292;BME280;4184;42.724;23.308;2022-07-04T06:32:45;95633.22;;;35.04;30.23
8292;BME280;4184;42.724;23.308;2022-07-04T06:35:12;95632.59;;;35.12;30.09
8292;BME280;4184;42.724;23.308;2022-07-04T06:37:57;95623.22;;;35.38;29.86
8292;BME280;4184;42.724;23.308;2022-07-04T06:40:25;95627.28;;;35.60;29.67
8292;BME280;4184;42.724;23.308;2022-07-04T06:42:54;95635.19;;;35.75;29.31
8292;BME280;4184;42.724;23.308;2022-07-04T06:45:21;95630.44;;;35.91;29.29
8292;BME280;4184;42.724;23.308;2022-07-04T06:47:49;95629.03;;;35.98;29.02
8292;BME280;4184;42.724;23.308;2022-07-04T06:50:17;95627.63;;;36.01;28.76
8292;BME280;4184;42.724;23.308;2022-07-04T06:52:45;95620.44;;;35.96;28.75
8292;BME280;4184;42.724;23.308;2022-07-04T06:55:13;95614.75;;;35.74;29.02
8292;BME280;4184;42.724;23.308;2022-07-04T06:57:41;95614.59;;;35.65;28.85
8292;BME280;4184;42.724;23.308;2022-07-04T07:00:11;95612.13;;;35.69;28.54
8292;BME280;4184;42.724;23.308;2022-07-04T07:02:38;95616.69;;;35.92;28.92
8292;BME280;4184;42.724;23.308;2022-07-04T07:05:06;95615.47;;;36.03;28.57
8292;BME280;4184;42.724;23.308;2022-07-04T07:07:36;95611.13;;;36.07;28.08
8292;BME280;4184;42.724;23.308;2022-07-04T07:10:05;95612.72;;;36.08;28.33
8292;BME280;4184;42.724;23.308;2022-07-04T07:12:34;95613.00;;;36.26;28.49
8292;BME280;4184;42.724;23.308;2022-07-04T07:15:02;95614.94;;;36.44;28.22
8292;BME280;4184;42.724;23.308;2022-07-04T07:17:31;95606.88;;;36.76;27.87
8292;BME280;4184;42.724;23.308;2022-07-04T07:19:58;95599.06;;;36.94;27.77
8292;BME280;4184;42.724;23.308;2022-07-04T07:22:26;95604.19;;;37.09;27.89
8292;BME280;4184;42.724;23.308;2022-07-04T07:24:54;95596.44;;;37.21;27.30
8292;BME280;4184;42.724;23.308;2022-07-04T07:27:21;95601.81;;;37.21;27.29
8292;BME280;4184;42.724;23.308;2022-07-04T07:29:49;95604.03;;;37.19;27.47
8292;BME280;4184;42.724;23.308;2022-07-04T07:32:16;95601.09;;;37.02;26.90
8292;BME280;4184;42.724;23.308;2022-07-04T07:34:45;95593.38;;;36.95;27.70
8292;BME280;4184;42.724;23.308;2022-07-04T07:37:13;95593.25;;;37.19;27.43
8292;BME280;4184;42.724;23.308;2022-07-04T07:39:40;95589.69;;;37.38;27.61
8292;BME280;4184;42.724;23.308;2022-07-04T07:42:08;95595.47;;;37.58;27.05
8292;BME280;4184;42.724;23.308;2022-07-04T07:44:35;95592.78;;;37.72;27.01
8292;BME280;4184;42.724;23.308;2022-07-04T07:47:03;95591.50;;;37.83;27.11
8292;BME280;4184;42.724;23.308;2022-07-04T07:49:31;95595.66;;;37.62;27.23
8292;BME280;4184;42.724;23.308;2022-07-04T07:51:59;95589.00;;;37.73;27.37
8292;BME280;4184;42.724;23.308;2022-07-04T07:54:27;95584.88;;;37.89;27.38
8292;BME280;4184;42.724;23.308;2022-07-04T07:56:54;95583.09;;;37.99;26.94
8292;BME280;4184;42.724;23.308;2022-07-04T07:59:22;95580.16;;;38.09;27.20
8292;BME280;4184;42.724;23.308;2022-07-04T08:01:49;95584.53;;;38.32;27.12
8292;BME280;4184;42.724;23.308;2022-07-04T08:04:17;95584.66;;;38.49;27.10
8292;BME280;4184;42.724;23.308;2022-07-04T08:07:03;95580.09;;;38.59;26.84
8292;BME280;4184;42.724;23.308;2022-07-04T08:09:31;95573.53;;;38.65;26.87
8292;BME280;4184;42.724;23.308;2022-07-04T08:11:59;95572.28;;;38.71;27.07
8292;BME280;4184;42.724;23.308;2022-07-04T08:14:27;95578.13;;;38.64;26.25
8292;BME280;4184;42.724;23.308;2022-07-04T08:16:55;95578.78;;;38.70;26.35
8292;BME280;4184;42.724;23.308;2022-07-04T08:19:23;95575.72;;;38.85;26.29
8292;BME280;4184;42.724;23.308;2022-07-04T08:21:51;95572.03;;;38.81;26.27
8292;BME280;4184;42.724;23.308;2022-07-04T08:24:21;95575.22;;;38.83;26.04
8292;BME280;4184;42.724;23.308;2022-07-04T08:26:49;95569.81;;;38.83;26.33
8292;BME280;4184;42.724;23.308;2022-07-04T08:29:17;95559.59;;;38.80;26.18
8292;BME280;4184;42.724;23.308;2022-07-04T08:31:44;95559.34;;;38.90;26.12
8292;BME280;4184;42.724;23.308;2022-07-04T08:34:12;95559.09;;;39.00;26.18
8292;BME280;4184;42.724;23.308;2022-07-04T08:36:40;95556.63;;;39.13;26.15
8292;BME280;4184;42.724;23.308;2022-07-04T08:39:07;95557.25;;;39.09;26.39
8292;BME280;4184;42.724;23.308;2022-07-04T08:41:38;95553.00;;;39.17;26.21
8292;BME280;4184;42.724;23.308;2022-07-04T08:44:08;95557.47;;;39.30;25.97
8292;BME280;4184;42.724;23.308;2022-07-04T08:46:38;95548.94;;;39.37;26.57
8292;BME280;4184;42.724;23.308;2022-07-04T08:49:11;95554.88;;;39.48;26.30
8292;BME280;4184;42.724;23.308;2022-07-04T08:51:47;95553.94;;;39.52;25.74
8292;BME280;4184;42.724;23.308;2022-07-04T08:54:18;95553.56;;;39.45;26.25
8292;BME280;4184;42.724;23.308;2022-07-04T08:57:06;95562.72;;;39.27;25.83
8292;BME280;4184;42.724;23.308;2022-07-04T08:59:51;95561.44;;;39.16;25.85
8292;BME280;4184;42.724;23.308;2022-07-04T09:02:22;95556.63;;;39.13;26.64
8292;BME280;4184;42.724;23.308;2022-07-04T09:04:50;95557.31;;;39.27;25.83
8292;BME280;4184;42.724;23.308;2022-07-04T09:07:18;95549.25;;;39.35;25.89
8292;BME280;4184;42.724;23.308;2022-07-04T09:09:45;95544.16;;;39.34;25.75
8292;BME280;4184;42.724;23.308;2022-07-04T09:12:14;95542.69;;;39.28;25.65
8292;BME280;4184;42.724;23.308;2022-07-04T09:14:42;95544.84;;;39.08;26.50
8292;BME280;4184;42.724;23.308;2022-07-04T09:17:09;95538.09;;;38.97;26.27
8292;BME280;4184;42.724;23.308;2022-07-04T09:19:37;95546.59;;;38.82;26.32
8292;BME280;4184;42.724;23.308;2022-07-04T09:22:07;95544.78;;;38.77;26.64
8292;BME280;4184;42.724;23.308;2022-07-04T09:24:47;95541.53;;;38.89;26.72
8292;BME280;4184;42.724;23.308;2022-07-04T09:27:33;95535.50;;;38.92;26.72
8292;BME280;4184;42.724;23.308;2022-07-04T09:30:02;95548.19;;;38.83;26.53
8292;BME280;4184;42.724;23.308;2022-07-04T09:32:36;95534.47;;;38.57;27.22
8292;BME280;4184;42.724;23.308;2022-07-04T09:35:07;95531.09;;;38.51;26.48
8292;BME280;4184;42.724;23.308;2022-07-04T09:37:37;95525.44;;;38.62;26.67
8292;BME280;4184;42.724;23.308;2022-07-04T09:40:07;95522.88;;;38.57;26.77
8292;BME280;4184;42.724;23.308;2022-07-04T09:42:38;95525.69;;;38.51;26.45
8292;BME280;4184;42.724;23.308;2022-07-04T09:45:08;95524.41;;;38.27;26.83
8292;BME280;4184;42.724;23.308;2022-07-04T09:47:37;95526.78;;;37.92;26.25
8292;BME280;4184;42.724;23.308;2022-07-04T09:50:07;95521.75;;;37.49;27.40
8292;BME280;4184;42.724;23.308;2022-07-04T09:52:45;95518.53;;;37.61;26.62
8292;BME280;4184;42.724;23.308;2022-07-04T09:55:14;95513.25;;;37.56;26.62
8292;BME280;4184;42.724;23.308;2022-07-04T09:57:48;95518.25;;;37.49;26.59
8292;BME280;4184;42.724;23.308;2022-07-04T10:00:18;95511.66;;;37.27;26.90
8292;BME280;4184;42.724;23.308;2022-07-04T10:02:45;95527.72;;;37.05;27.23
8292;BME280;4184;42.724;23.308;2022-07-04T10:05:16;95521.22;;;36.73;28.33
8292;BME280;4184;42.724;23.308;2022-07-04T10:07:46;95522.69;;;36.52;28.50
8292;BME280;4184;42.724;23.308;2022-07-04T10:13:02;95517.84;;;35.98;29.23
8292;BME280;4184;42.724;23.308;2022-07-04T10:15:30;95519.47;;;35.75;29.48
8292;BME280;4184;42.724;23.308;2022-07-04T10:17:57;95515.59;;;35.43;29.86
8292;BME280;4184;42.724;23.308;2022-07-04T10:20:25;95519.09;;;34.91;30.46
8292;BME280;4184;42.724;23.308;2022-07-04T10:22:53;95513.88;;;34.42;31.03
8292;BME280;4184;42.724;23.308;2022-07-04T10:25:20;95510.88;;;34.09;31.67
8292;BME280;4184;42.724;23.308;2022-07-04T10:27:48;95516.91;;;33.91;32.49
8292;BME280;4184;42.724;23.308;2022-07-04T10:30:22;95513.25;;;33.76;32.24
8292;BME280;4184;42.724;23.308;2022-07-04T10:32:51;95507.44;;;33.54;32.54
8292;BME280;4184;42.724;23.308;2022-07-04T10:35:47;95502.19;;;33.29;33.49
8292;BME280;4184;42.724;23.308;2022-07-04T10:38:16;95502.78;;;33.10;33.63
8292;BME280;4184;42.724;23.308;2022-07-04T10:40:46;95496.94;;;32.93;33.54
8292;BME280;4184;42.724;23.308;2022-07-04T10:46:33;95499.13;;;32.40;34.08
8292;BME280;4184;42.724;23.308;2022-07-04T10:49:04;95496.69;;;32.23;34.45
8292;BME280;4184;42.724;23.308;2022-07-04T10:51:34;95497.47;;;32.19;34.54
8292;BME280;4184;42.724;23.308;2022-07-04T10:54:03;95490.53;;;32.23;35.11
8292;BME280;4184;42.724;23.308;2022-07-04T10:56:40;95491.91;;;32.30;34.89
8292;BME280;4184;42.724;23.308;2022-07-04T10:59:10;95482.53;;;32.33;34.93
8292;BME280;4184;42.724;23.308;2022-07-04T11:01:44;95493.19;;;32.23;35.18
8292;BME280;4184;42.724;23.308;2022-07-04T11:04:11;95474.75;;;32.11;35.52
8292;BME280;4184;42.724;23.308;2022-07-04T11:06:52;95480.09;;;32.06;35.44
8292;BME280;4184;42.724;23.308;2022-07-04T11:09:21;95479.00;;;32.07;35.69
8292;BME280;4184;42.724;23.308;2022-07-04T11:11:56;95476.59;;;32.06;35.46
8292;BME280;4184;42.724;23.308;2022-07-04T11:14:31;95470.47;;;32.10;35.34
8292;BME280;4184;42.724;23.308;2022-07-04T11:17:00;95480.09;;;32.11;35.63
8292;BME280;4184;42.724;23.308;2022-07-04T11:19:27;95470.22;;;32.12;35.47
8292;BME280;4184;42.724;23.308;2022-07-04T11:21:55;95476.38;;;32.12;35.82
8292;BME280;4184;42.724;23.308;2022-07-04T11:24:23;95463.25;;;32.11;35.53
8292;BME280;4184;42.724;23.308;2022-07-04T11:26:52;95463.75;;;32.08;35.81
8292;BME280;4184;42.724;23.308;2022-07-04T11:29:19;95478.75;;;32.03;35.80
8292;BME280;4184;42.724;23.308;2022-07-04T11:31:48;95474.75;;;32.01;35.81
8292;BME280;4184;42.724;23.308;2022-07-04T11:34:18;95469.38;;;32.01;35.86
8292;BME280;4184;42.724;23.308;2022-07-04T11:36:46;95458.41;;;32.02;35.99
8292;BME280;4184;42.724;23.308;2022-07-04T11:39:15;95461.34;;;32.06;35.77
8292;BME280;4184;42.724;23.308;2022-07-04T11:41:46;95457.88;;;32.06;35.69
8292;BME280;4184;42.724;23.308;2022-07-04T11:44:33;95450.41;;;31.97;36.25
8292;BME280;4184;42.724;23.308;2022-07-04T11:47:20;95447.16;;;31.90;35.99
8292;BME280;4184;42.724;23.308;2022-07-04T11:49:52;95448.50;;;31.88;36.11
8292;BME280;4184;42.724;23.308;2022-07-04T11:52:23;95450.66;;;31.86;36.23
8292;BME280;4184;42.724;23.308;2022-07-04T11:54:51;95438.34;;;31.90;36.06
8292;BME280;4184;42.724;23.308;2022-07-04T11:57:21;95439.72;;;31.97;36.32
8292;BME280;4184;42.724;23.308;2022-07-04T11:59:54;95415.34;;;32.04;35.99
8292;BME280;4184;42.724;23.308;2022-07-04T12:02:22;95431.41;;;32.04;35.88
8292;BME280;4184;42.724;23.308;2022-07-04T12:04:51;95421.78;;;31.98;36.05
8292;BME280;4184;42.724;23.308;2022-07-04T12:07:21;95419.38;;;31.96;36.24
8292;BME280;4184;42.724;23.308;2022-07-04T12:09:50;95422.56;;;32.03;36.50
8292;BME280;4184;42.724;23.308;2022-07-04T12:12:17;95407.06;;;32.06;36.02
8292;BME280;4184;42.724;23.308;2022-07-04T12:14:59;95404.09;;;32.07;36.25
8292;BME280;4184;42.724;23.308;2022-07-04T12:17:32;95399.31;;;32.04;36.22
8292;BME280;4184;42.724;23.308;2022-07-04T12:20:03;95396.38;;;31.95;36.39
8292;BME280;4184;42.724;23.308;2022-07-04T12:22:36;95398.50;;;31.88;36.47
8292;BME280;4184;42.724;23.308;2022-07-04T12:25:06;95396.91;;;31.92;36.72
8292;BME280;4184;42.724;23.308;2022-07-04T12:27:34;95399.59;;;31.97;36.45
8292;BME280;4184;42.724;23.308;2022-07-04T12:30:04;95403.06;;;31.98;36.47
8292;BME280;4184;42.724;23.308;2022-07-04T12:32:45;95396.13;;;31.97;36.42
8292;BME280;4184;42.724;23.308;2022-07-04T12:35:39;95391.56;;;31.97;36.43
8292;BME280;4184;42.724;23.308;2022-07-04T12:38:09;95386.75;;;31.99;36.78
8292;BME280;4184;42.724;23.308;2022-07-04T12:40:49;95389.41;;;31.99;36.88
8292;BME280;4184;42.724;23.308;2022-07-04T12:43:17;95387.56;;;31.95;36.56
8292;BME280;4184;42.724;23.308;2022-07-04T12:45:47;95390.75;;;31.87;37.01
8292;BME280;4184;42.724;23.308;2022-07-04T12:48:19;95383.00;;;31.85;37.17
8292;BME280;4184;42.724;23.308;2022-07-04T12:50:48;95392.38;;;31.83;36.98
8292;BME280;4184;42.724;23.308;2022-07-04T12:53:17;95386.75;;;31.79;37.15
8292;BME280;4184;42.724;23.308;2022-07-04T12:55:46;95394.47;;;31.60;37.34
8292;BME280;4184;42.724;23.308;2022-07-04T12:58:14;95393.09;;;31.53;37.53
8292;BME280;4184;42.724;23.308;2022-07-04T13:00:42;95389.91;;;31.51;37.71
8292;BME280;4184;42.724;23.308;2022-07-04T13:03:10;95386.16;;;31.52;37.46
8292;BME280;4184;42.724;23.308;2022-07-04T13:05:38;95378.69;;;31.54;37.60
8292;BME280;4184;42.724;23.308;2022-07-04T13:08:07;95387.22;;;31.56;37.85
8292;BME280;4184;42.724;23.308;2022-07-04T13:10:35;95376.84;;;31.59;37.60
8292;BME280;4184;42.724;23.308;2022-07-04T13:13:03;95376.00;;;31.54;37.82
8292;BME280;4184;42.724;23.308;2022-07-04T13:15:30;95376.81;;;31.49;37.65
8292;BME280;4184;42.724;23.308;2022-07-04T13:17:58;95376.53;;;31.46;37.93
8292;BME280;4184;42.724;23.308;2022-07-04T13:20:26;95366.38;;;31.42;37.75
8292;BME280;4184;42.724;23.308;2022-07-04T13:22:53;95375.47;;;31.41;37.80
8292;BME280;4184;42.724;23.308;2022-07-04T13:25:22;95370.13;;;31.41;37.90
8292;BME280;4184;42.724;23.308;2022-07-04T13:27:50;95367.47;;;31.41;38.09